sensor_id;sensor_type;location;lat;lon;timestamp;temperature;humidity
24860;DHT22;12936;52.006;4.350;2023-07-13T00:01:42;21.20;99.90
24860;DHT22;12936;52.006;4.350;2023-07-13T00:04:37;21.20;99.90
24860;DHT22;12936;52.006;4.350;2023-07-13T00:07:41;21.20;99.90
24860;DHT22;12936;52.006;4.350;2023-07-13T00:10:33;21.20;99.90
24860;DHT22;12936;52.006;4.350;2023-07-13T00:13:45;21.20;99.90
24860;DHT22;12936;52.006;4.350;2023-07-13T00:16:18;21.20;99.90
24860;DHT22;12936;52.006;4.350;2023-07-13T00:19:14;21.20;99.90
24860;DHT22;12936;52.006;4.350;2023-07-13T00:22:14;21.20;99.90
24860;DHT22;12936;52.006;4.350;2023-07-13T00:24:49;21.20;99.90
24860;DHT22;12936;52.006;4.350;2023-07-13T00:27:23;21.20;99.90
24860;DHT22;12936;52.006;4.350;2023-07-13T00:30:18;21.20;99.90
24860;DHT22;12936;52.006;4.350;2023-07-13T00:32:49;21.20;99.90
24860;DHT22;12936;52.006;4.350;2023-07-13T00:35:48;21.20;99.90
24860;DHT22;12936;52.006;4.350;2023-07-13T00:38:41;21.20;99.90
24860;DHT22;12936;52.006;4.350;2023-07-13T00:41:15;21.20;99.90
24860;DHT22;12936;52.006;4.350;2023-07-13T00:43:51;21.20;99.90
24860;DHT22;12936;52.006;4.350;2023-07-13T00:46:28;21.10;99.90
24860;DHT22;12936;52.006;4.350;2023-07-13T00:49:10;21.10;99.90
24860;DHT22;12936;52.006;4.350;2023-07-13T00:51:48;21.10;99.90
24860;DHT22;12936;52.006;4.350;2023-07-13T00:54:45;21.10;99.90
24860;DHT22;12936;52.006;4.350;2023-07-13T00:57:38;21.10;99.90
24860;DHT22;12936;52.006;4.350;2023-07-13T01:00:16;21.10;99.90
24860;DHT22;12936;52.006;4.350;2023-07-13T01:02:57;21.10;99.90
24860;DHT22;12936;52.006;4.350;2023-07-13T01:06:10;21.00;99.90
24860;DHT22;12936;52.006;4.350;2023-07-13T01:09:25;21.00;99.90
24860;DHT22;12936;52.006;4.350;2023-07-13T01:12:03;21.00;99.90
24860;DHT22;12936;52.006;4.350;2023-07-13T01:14:58;20.90;99.90
24860;DHT22;12936;52.006;4.350;2023-07-13T01:17:37;20.90;99.90
24860;DHT22;12936;52.006;4.350;2023-07-13T01:20:31;20.90;99.90
24860;DHT22;12936;52.006;4.350;2023-07-13T01:23:14;20.80;99.90
24860;DHT22;12936;52.006;4.350;2023-07-13T01:26:24;20.80;99.90
24860;DHT22;12936;52.006;4.350;2023-07-13T01:29:13;20.70;99.90
24860;DHT22;12936;52.006;4.350;2023-07-13T01:31:54;20.70;99.90
24860;DHT22;12936;52.006;4.350;2023-07-13T01:34:50;20.70;99.90
24860;DHT22;12936;52.006;4.350;2023-07-13T01:37:24;20.60;99.90
24860;DHT22;12936;52.006;4.350;2023-07-13T01:40:19;20.60;99.90
24860;DHT22;12936;52.006;4.350;2023-07-13T01:42:55;20.60;99.90
24860;DHT22;12936;52.006;4.350;2023-07-13T01:45:29;20.60;99.90
24860;DHT22;12936;52.006;4.350;2023-07-13T01:47:58;20.50;99.90
24860;DHT22;12936;52.006;4.350;2023-07-13T01:50:48;20.50;99.90
24860;DHT22;12936;52.006;4.350;2023-07-13T01:53:31;20.50;99.90
24860;DHT22;12936;52.006;4.350;2023-07-13T01:56:10;20.50;99.90
24860;DHT22;12936;52.006;4.350;2023-07-13T01:59:16;20.50;99.90
24860;DHT22;12936;52.006;4.350;2023-07-13T02:02:10;20.40;99.90
24860;DHT22;12936;52.006;4.350;2023-07-13T02:04:40;20.40;99.90
24860;DHT22;12936;52.006;4.350;2023-07-13T02:07:15;20.40;99.90
24860;DHT22;12936;52.006;4.350;2023-07-13T02:09:45;20.40;99.90
24860;DHT22;12936;52.006;4.350;2023-07-13T02:12:20;20.30;99.90
24860;DHT22;12936;52.006;4.350;2023-07-13T02:14:49;20.30;99.90
24860;DHT22;12936;52.006;4.350;2023-07-13T02:17:42;20.30;99.90
24860;DHT22;12936;52.006;4.350;2023-07-13T02:20:11;20.30;99.90
24860;DHT22;12936;52.006;4.350;2023-07-13T02:22:50;20.30;99.90
24860;DHT22;12936;52.006;4.350;2023-07-13T02:26:00;20.20;99.90
24860;DHT22;12936;52.006;4.350;2023-07-13T02:28:58;20.20;99.90
24860;DHT22;12936;52.006;4.350;2023-07-13T02:31:30;20.20;99.90
24860;DHT22;12936;52.006;4.350;2023-07-13T02:34:28;20.20;99.90
24860;DHT22;12936;52.006;4.350;2023-07-13T02:37:03;20.20;99.90
24860;DHT22;12936;52.006;4.350;2023-07-13T02:39:38;20.10;99.90
24860;DHT22;12936;52.006;4.350;2023-07-13T02:42:34;20.10;99.90
24860;DHT22;12936;52.006;4.350;2023-07-13T02:45:32;20.10;99.90
24860;DHT22;12936;52.006;4.350;2023-07-13T02:48:05;20.20;99.90
24860;DHT22;12936;52.006;4.350;2023-07-13T02:50:36;20.10;99.90
24860;DHT22;12936;52.006;4.350;2023-07-13T02:53:05;20.10;99.90
24860;DHT22;12936;52.006;4.350;2023-07-13T02:55:38;20.10;99.90
24860;DHT22;12936;52.006;4.350;2023-07-13T02:58:34;20.10;99.90
24860;DHT22;12936;52.006;4.350;2023-07-13T03:01:14;20.20;99.90
24860;DHT22;12936;52.006;4.350;2023-07-13T03:03:49;20.10;99.90
24860;DHT22;12936;52.006;4.350;2023-07-13T03:06:18;20.10;99.90
24860;DHT22;12936;52.006;4.350;2023-07-13T03:09:00;20.10;99.90
24860;DHT22;12936;52.006;4.350;2023-07-13T03:12:00;20.10;99.90
24860;DHT22;12936;52.006;4.350;2023-07-13T03:14:58;20.20;99.90
24860;DHT22;12936;52.006;4.350;2023-07-13T03:17:55;20.20;99.90
24860;DHT22;12936;52.006;4.350;2023-07-13T03:20:44;20.20;99.90
24860;DHT22;12936;52.006;4.350;2023-07-13T03:23:38;20.20;99.90
24860;DHT22;12936;52.006;4.350;2023-07-13T03:26:29;20.20;99.90
24860;DHT22;12936;52.006;4.350;2023-07-13T03:29:24;20.20;99.90
24860;DHT22;12936;52.006;4.350;2023-07-13T03:32:00;20.20;99.90
24860;DHT22;12936;52.006;4.350;2023-07-13T03:35:07;20.20;99.90
24860;DHT22;12936;52.006;4.350;2023-07-13T03:38:01;20.20;99.90
24860;DHT22;12936;52.006;4.350;2023-07-13T03:40:52;20.30;99.90
24860;DHT22;12936;52.006;4.350;2023-07-13T03:43:49;20.20;99.90
24860;DHT22;12936;52.006;4.350;2023-07-13T03:46:23;20.20;99.90
24860;DHT22;12936;52.006;4.350;2023-07-13T03:49:00;20.20;99.90
24860;DHT22;12936;52.006;4.350;2023-07-13T03:51:58;20.20;99.90
24860;DHT22;12936;52.006;4.350;2023-07-13T03:54:38;20.30;99.90
24860;DHT22;12936;52.006;4.350;2023-07-13T03:57:15;20.30;99.90
24860;DHT22;12936;52.006;4.350;2023-07-13T03:59:48;20.30;99.90
24860;DHT22;12936;52.006;4.350;2023-07-13T04:02:29;20.30;99.90
24860;DHT22;12936;52.006;4.350;2023-07-13T04:05:01;20.30;99.90
24860;DHT22;12936;52.006;4.350;2023-07-13T04:07:38;20.30;99.90
24860;DHT22;12936;52.006;4.350;2023-07-13T04:10:10;20.30;99.90
24860;DHT22;12936;52.006;4.350;2023-07-13T04:13:46;20.30;99.90
24860;DHT22;12936;52.006;4.350;2023-07-13T04:16:21;20.30;99.90
24860;DHT22;12936;52.006;4.350;2023-07-13T04:18:52;20.40;99.90
24860;DHT22;12936;52.006;4.350;2023-07-13T04:21:31;20.40;99.90
24860;DHT22;12936;52.006;4.350;2023-07-13T04:24:35;20.40;99.90
24860;DHT22;12936;52.006;4.350;2023-07-13T04:27:15;20.40;99.90
24860;DHT22;12936;52.006;4.350;2023-07-13T04:30:13;20.40;99.90
24860;DHT22;12936;52.006;4.350;2023-07-13T04:33:03;20.40;99.90
24860;DHT22;12936;52.006;4.350;2023-07-13T04:35:39;20.50;99.90
24860;DHT22;12936;52.006;4.350;2023-07-13T04:38:34;20.50;99.90
24860;DHT22;12936;52.006;4.350;2023-07-13T04:41:31;20.50;99.90
24860;DHT22;12936;52.006;4.350;2023-07-13T04:44:24;20.50;99.90
24860;DHT22;12936;52.006;4.350;2023-07-13T04:46:55;20.50;99.90
24860;DHT22;12936;52.006;4.350;2023-07-13T04:49:46;20.50;99.90
24860;DHT22;12936;52.006;4.350;2023-07-13T04:52:37;20.50;99.90
24860;DHT22;12936;52.006;4.350;2023-07-13T04:55:25;20.60;99.90
24860;DHT22;12936;52.006;4.350;2023-07-13T04:58:10;20.60;99.90
24860;DHT22;12936;52.006;4.350;2023-07-13T05:00:45;20.60;99.90
24860;DHT22;12936;52.006;4.350;2023-07-13T05:03:27;20.60;99.90
24860;DHT22;12936;52.006;4.350;2023-07-13T05:05:56;20.60;99.90
24860;DHT22;12936;52.006;4.350;2023-07-13T05:08:26;20.60;99.90
24860;DHT22;12936;52.006;4.350;2023-07-13T05:10:56;20.60;99.90
24860;DHT22;12936;52.006;4.350;2023-07-13T05:13:28;20.60;99.90
24860;DHT22;12936;52.006;4.350;2023-07-13T05:15:59;20.60;99.90
24860;DHT22;12936;52.006;4.350;2023-07-13T05:18:28;20.70;99.90
24860;DHT22;12936;52.006;4.350;2023-07-13T05:21:00;20.70;99.90
24860;DHT22;12936;52.006;4.350;2023-07-13T05:23:29;20.60;99.90
24860;DHT22;12936;52.006;4.350;2023-07-13T05:26:00;20.70;99.90
24860;DHT22;12936;52.006;4.350;2023-07-13T05:28:37;20.70;99.90
24860;DHT22;12936;52.006;4.350;2023-07-13T05:31:07;20.60;99.90
24860;DHT22;12936;52.006;4.350;2023-07-13T05:33:36;20.70;99.90
24860;DHT22;12936;52.006;4.350;2023-07-13T05:36:05;20.60;99.90
24860;DHT22;12936;52.006;4.350;2023-07-13T05:38:34;20.60;99.90
24860;DHT22;12936;52.006;4.350;2023-07-13T05:41:04;20.70;99.90
24860;DHT22;12936;52.006;4.350;2023-07-13T05:43:32;20.70;99.90
24860;DHT22;12936;52.006;4.350;2023-07-13T05:46:03;20.70;99.90
24860;DHT22;12936;52.006;4.350;2023-07-13T05:48:31;20.60;99.90
24860;DHT22;12936;52.006;4.350;2023-07-13T05:51:00;20.70;99.90
24860;DHT22;12936;52.006;4.350;2023-07-13T05:53:29;20.60;99.90
24860;DHT22;12936;52.006;4.350;2023-07-13T05:55:59;20.60;99.90
24860;DHT22;12936;52.006;4.350;2023-07-13T05:58:29;20.70;99.90
24860;DHT22;12936;52.006;4.350;2023-07-13T06:01:02;20.70;99.90
24860;DHT22;12936;52.006;4.350;2023-07-13T06:03:31;20.70;99.90
24860;DHT22;12936;52.006;4.350;2023-07-13T06:06:00;20.80;99.90
24860;DHT22;12936;52.006;4.350;2023-07-13T06:08:28;20.70;99.90
24860;DHT22;12936;52.006;4.350;2023-07-13T06:11:02;20.70;99.90
24860;DHT22;12936;52.006;4.350;2023-07-13T06:13:31;20.70;99.90
24860;DHT22;12936;52.006;4.350;2023-07-13T06:16:02;20.70;99.90
24860;DHT22;12936;52.006;4.350;2023-07-13T06:18:34;20.80;99.90
24860;DHT22;12936;52.006;4.350;2023-07-13T06:21:06;20.80;99.90
24860;DHT22;12936;52.006;4.350;2023-07-13T06:23:41;20.70;99.90
24860;DHT22;12936;52.006;4.350;2023-07-13T06:26:10;20.70;99.90
24860;DHT22;12936;52.006;4.350;2023-07-13T06:28:38;20.80;99.90
24860;DHT22;12936;52.006;4.350;2023-07-13T06:31:09;20.80;99.90
24860;DHT22;12936;52.006;4.350;2023-07-13T06:33:40;20.70;99.90
24860;DHT22;12936;52.006;4.350;2023-07-13T06:36:09;20.80;99.90
24860;DHT22;12936;52.006;4.350;2023-07-13T06:38:37;20.80;99.90
24860;DHT22;12936;52.006;4.350;2023-07-13T06:41:08;20.80;99.90
24860;DHT22;12936;52.006;4.350;2023-07-13T06:43:37;20.80;99.90
24860;DHT22;12936;52.006;4.350;2023-07-13T06:46:10;20.90;99.90
24860;DHT22;12936;52.006;4.350;2023-07-13T06:48:38;20.90;99.90
24860;DHT22;12936;52.006;4.350;2023-07-13T06:51:07;20.80;99.90
24860;DHT22;12936;52.006;4.350;2023-07-13T06:53:36;20.80;99.90
24860;DHT22;12936;52.006;4.350;2023-07-13T06:56:04;20.80;99.90
24860;DHT22;12936;52.006;4.350;2023-07-13T06:58:34;20.80;99.90
24860;DHT22;12936;52.006;4.350;2023-07-13T07:01:02;20.90;99.90
24860;DHT22;12936;52.006;4.350;2023-07-13T07:03:36;20.90;99.90
24860;DHT22;12936;52.006;4.350;2023-07-13T07:06:14;20.90;99.90
24860;DHT22;12936;52.006;4.350;2023-07-13T07:08:43;20.90;99.90
24860;DHT22;12936;52.006;4.350;2023-07-13T07:11:13;20.90;99.90
24860;DHT22;12936;52.006;4.350;2023-07-13T07:13:42;20.90;99.90
24860;DHT22;12936;52.006;4.350;2023-07-13T07:16:10;20.90;99.90
24860;DHT22;12936;52.006;4.350;2023-07-13T07:18:41;20.90;99.90
24860;DHT22;12936;52.006;4.350;2023-07-13T07:21:12;20.90;99.90
24860;DHT22;12936;52.006;4.350;2023-07-13T07:23:41;20.90;99.90
24860;DHT22;12936;52.006;4.350;2023-07-13T07:26:10;21.00;99.90
24860;DHT22;12936;52.006;4.350;2023-07-13T07:28:38;21.00;99.90
24860;DHT22;12936;52.006;4.350;2023-07-13T07:31:11;21.00;99.90
24860;DHT22;12936;52.006;4.350;2023-07-13T07:34:00;21.00;99.90
24860;DHT22;12936;52.006;4.350;2023-07-13T07:36:29;21.00;99.90
24860;DHT22;12936;52.006;4.350;2023-07-13T07:39:00;21.00;99.90
24860;DHT22;12936;52.006;4.350;2023-07-13T07:41:29;21.00;99.90
24860;DHT22;12936;52.006;4.350;2023-07-13T07:44:00;21.00;99.90
24860;DHT22;12936;52.006;4.350;2023-07-13T07:46:28;21.00;99.90
24860;DHT22;12936;52.006;4.350;2023-07-13T07:48:57;21.00;99.90
24860;DHT22;12936;52.006;4.350;2023-07-13T07:51:29;21.00;99.90
24860;DHT22;12936;52.006;4.350;2023-07-13T07:53:58;21.00;99.90
24860;DHT22;12936;52.006;4.350;2023-07-13T07:56:27;21.10;99.90
24860;DHT22;12936;52.006;4.350;2023-07-13T07:58:59;21.10;99.90
24860;DHT22;12936;52.006;4.350;2023-07-13T08:01:30;21.10;99.90
24860;DHT22;12936;52.006;4.350;2023-07-13T08:04:01;21.10;99.90
24860;DHT22;12936;52.006;4.350;2023-07-13T08:06:33;21.20;99.90
24860;DHT22;12936;52.006;4.350;2023-07-13T08:09:04;21.20;99.90
24860;DHT22;12936;52.006;4.350;2023-07-13T08:11:32;21.20;99.90
24860;DHT22;12936;52.006;4.350;2023-07-13T08:14:03;21.10;99.90
24860;DHT22;12936;52.006;4.350;2023-07-13T08:16:32;21.20;99.90
24860;DHT22;12936;52.006;4.350;2023-07-13T08:19:01;21.20;99.90
24860;DHT22;12936;52.006;4.350;2023-07-13T08:21:29;21.20;99.90
24860;DHT22;12936;52.006;4.350;2023-07-13T08:24:04;21.20;99.90
24860;DHT22;12936;52.006;4.350;2023-07-13T08:26:34;21.30;99.90
24860;DHT22;12936;52.006;4.350;2023-07-13T08:29:02;21.10;99.90
24860;DHT22;12936;52.006;4.350;2023-07-13T08:31:30;21.00;99.90
24860;DHT22;12936;52.006;4.350;2023-07-13T08:34:18;21.00;99.90
24860;DHT22;12936;52.006;4.350;2023-07-13T08:36:47;21.00;99.90
24860;DHT22;12936;52.006;4.350;2023-07-13T08:39:17;21.10;99.90
24860;DHT22;12936;52.006;4.350;2023-07-13T08:41:46;21.10;99.90
24860;DHT22;12936;52.006;4.350;2023-07-13T08:44:19;21.10;99.90
24860;DHT22;12936;52.006;4.350;2023-07-13T08:46:52;21.10;99.90
24860;DHT22;12936;52.006;4.350;2023-07-13T08:49:23;21.10;99.90
24860;DHT22;12936;52.006;4.350;2023-07-13T08:51:54;21.10;99.90
24860;DHT22;12936;52.006;4.350;2023-07-13T08:54:30;21.20;99.90
24860;DHT22;12936;52.006;4.350;2023-07-13T08:57:03;21.20;99.90
24860;DHT22;12936;52.006;4.350;2023-07-13T08:59:37;21.20;99.90
24860;DHT22;12936;52.006;4.350;2023-07-13T09:02:19;21.30;99.90
24860;DHT22;12936;52.006;4.350;2023-07-13T09:04:52;21.20;99.90
24860;DHT22;12936;52.006;4.350;2023-07-13T09:07:29;21.30;99.90
24860;DHT22;12936;52.006;4.350;2023-07-13T09:10:12;21.30;99.90
24860;DHT22;12936;52.006;4.350;2023-07-13T09:12:51;21.30;99.90
24860;DHT22;12936;52.006;4.350;2023-07-13T09:15:26;21.30;99.90
24860;DHT22;12936;52.006;4.350;2023-07-13T09:18:06;21.30;99.90
24860;DHT22;12936;52.006;4.350;2023-07-13T09:20:39;21.30;99.90
24860;DHT22;12936;52.006;4.350;2023-07-13T09:23:18;21.30;99.90
24860;DHT22;12936;52.006;4.350;2023-07-13T09:25:52;21.40;99.90
24860;DHT22;12936;52.006;4.350;2023-07-13T09:28:25;21.40;99.90
24860;DHT22;12936;52.006;4.350;2023-07-13T09:30:58;21.40;99.90
24860;DHT22;12936;52.006;4.350;2023-07-13T09:33:29;21.50;99.90
24860;DHT22;12936;52.006;4.350;2023-07-13T09:35:58;21.50;99.90
24860;DHT22;12936;52.006;4.350;2023-07-13T09:38:29;21.50;99.90
24860;DHT22;12936;52.006;4.350;2023-07-13T09:41:08;21.50;99.90
24860;DHT22;12936;52.006;4.350;2023-07-13T09:44:00;21.60;99.90
24860;DHT22;12936;52.006;4.350;2023-07-13T09:46:28;21.60;99.90
24860;DHT22;12936;52.006;4.350;2023-07-13T09:48:57;21.60;99.90
24860;DHT22;12936;52.006;4.350;2023-07-13T09:51:25;21.60;99.90
24860;DHT22;12936;52.006;4.350;2023-07-13T09:53:55;21.60;99.90
24860;DHT22;12936;52.006;4.350;2023-07-13T09:56:28;21.60;99.90
24860;DHT22;12936;52.006;4.350;2023-07-13T09:58:57;21.70;99.90
24860;DHT22;12936;52.006;4.350;2023-07-13T10:01:33;21.60;99.90
24860;DHT22;12936;52.006;4.350;2023-07-13T10:04:03;21.70;99.90
24860;DHT22;12936;52.006;4.350;2023-07-13T10:06:40;21.60;99.90
24860;DHT22;12936;52.006;4.350;2023-07-13T10:09:15;21.60;99.90
24860;DHT22;12936;52.006;4.350;2023-07-13T10:11:45;21.60;99.90
24860;DHT22;12936;52.006;4.350;2023-07-13T10:14:16;21.60;99.90
24860;DHT22;12936;52.006;4.350;2023-07-13T10:16:46;21.60;99.90
24860;DHT22;12936;52.006;4.350;2023-07-13T10:19:21;21.60;99.90
24860;DHT22;12936;52.006;4.350;2023-07-13T10:21:53;21.60;99.90
24860;DHT22;12936;52.006;4.350;2023-07-13T10:24:24;21.60;99.90
24860;DHT22;12936;52.006;4.350;2023-07-13T10:27:00;21.60;99.90
24860;DHT22;12936;52.006;4.350;2023-07-13T10:29:35;21.60;99.90
24860;DHT22;12936;52.006;4.350;2023-07-13T10:32:09;21.70;99.90
24860;DHT22;12936;52.006;4.350;2023-07-13T10:34:39;21.70;99.90
24860;DHT22;12936;52.006;4.350;2023-07-13T10:37:22;21.80;99.90
24860;DHT22;12936;52.006;4.350;2023-07-13T10:39:54;21.90;99.90
24860;DHT22;12936;52.006;4.350;2023-07-13T10:42:29;22.00;99.90
24860;DHT22;12936;52.006;4.350;2023-07-13T10:44:59;22.00;99.90
24860;DHT22;12936;52.006;4.350;2023-07-13T10:47:28;22.00;99.90
24860;DHT22;12936;52.006;4.350;2023-07-13T10:49:58;22.00;99.90
24860;DHT22;12936;52.006;4.350;2023-07-13T10:52:42;22.00;99.90
24860;DHT22;12936;52.006;4.350;2023-07-13T10:55:36;22.10;99.90
24860;DHT22;12936;52.006;4.350;2023-07-13T10:58:32;22.10;99.90
24860;DHT22;12936;52.006;4.350;2023-07-13T11:01:08;22.20;99.90
24860;DHT22;12936;52.006;4.350;2023-07-13T11:03:48;22.20;99.90
24860;DHT22;12936;52.006;4.350;2023-07-13T11:06:32;22.20;99.90
24860;DHT22;12936;52.006;4.350;2023-07-13T11:12:29;22.30;99.90
24860;DHT22;12936;52.006;4.350;2023-07-13T11:15:29;22.30;99.90
24860;DHT22;12936;52.006;4.350;2023-07-13T11:18:02;22.30;99.90
24860;DHT22;12936;52.006;4.350;2023-07-13T11:20:41;22.40;99.90
24860;DHT22;12936;52.006;4.350;2023-07-13T11:23:28;22.30;99.90
24860;DHT22;12936;52.006;4.350;2023-07-13T11:25:57;22.30;99.90
24860;DHT22;12936;52.006;4.350;2023-07-13T11:28:29;22.20;99.90
24860;DHT22;12936;52.006;4.350;2023-07-13T11:31:12;22.30;99.90
24860;DHT22;12936;52.006;4.350;2023-07-13T11:34:00;22.30;99.90
24860;DHT22;12936;52.006;4.350;2023-07-13T11:36:36;22.20;99.90
24860;DHT22;12936;52.006;4.350;2023-07-13T11:39:17;22.20;99.90
24860;DHT22;12936;52.006;4.350;2023-07-13T11:41:50;22.20;99.90
24860;DHT22;12936;52.006;4.350;2023-07-13T11:44:21;22.30;99.90
24860;DHT22;12936;52.006;4.350;2023-07-13T11:46:55;22.20;99.90
24860;DHT22;12936;52.006;4.350;2023-07-13T11:49:24;22.20;99.90
24860;DHT22;12936;52.006;4.350;2023-07-13T11:51:54;22.20;99.90
24860;DHT22;12936;52.006;4.350;2023-07-13T11:54:26;22.20;99.90
24860;DHT22;12936;52.006;4.350;2023-07-13T11:56:58;22.20;99.90
24860;DHT22;12936;52.006;4.350;2023-07-13T11:59:31;22.20;99.90
24860;DHT22;12936;52.006;4.350;2023-07-13T12:02:01;22.30;99.90
24860;DHT22;12936;52.006;4.350;2023-07-13T12:04:33;22.30;99.90
24860;DHT22;12936;52.006;4.350;2023-07-13T12:07:07;22.30;99.90
24860;DHT22;12936;52.006;4.350;2023-07-13T12:09:37;22.40;99.90
24860;DHT22;12936;52.006;4.350;2023-07-13T12:12:11;22.40;99.90
24860;DHT22;12936;52.006;4.350;2023-07-13T12:14:40;22.40;99.90
24860;DHT22;12936;52.006;4.350;2023-07-13T12:17:19;22.50;99.90
24860;DHT22;12936;52.006;4.350;2023-07-13T12:19:48;22.50;99.90
24860;DHT22;12936;52.006;4.350;2023-07-13T12:22:18;22.50;99.90
24860;DHT22;12936;52.006;4.350;2023-07-13T12:24:48;22.50;99.90
24860;DHT22;12936;52.006;4.350;2023-07-13T12:27:20;22.50;99.90
24860;DHT22;12936;52.006;4.350;2023-07-13T12:29:53;22.50;99.90
24860;DHT22;12936;52.006;4.350;2023-07-13T12:32:27;22.50;99.90
24860;DHT22;12936;52.006;4.350;2023-07-13T12:35:12;22.50;99.90
24860;DHT22;12936;52.006;4.350;2023-07-13T12:37:42;22.60;99.90
24860;DHT22;12936;52.006;4.350;2023-07-13T12:40:20;22.60;99.90
24860;DHT22;12936;52.006;4.350;2023-07-13T12:42:51;22.70;99.90
24860;DHT22;12936;52.006;4.350;2023-07-13T12:45:23;22.70;99.90
24860;DHT22;12936;52.006;4.350;2023-07-13T12:47:58;22.80;99.90
24860;DHT22;12936;52.006;4.350;2023-07-13T12:50:31;22.80;99.90
24860;DHT22;12936;52.006;4.350;2023-07-13T12:53:04;22.80;99.90
24860;DHT22;12936;52.006;4.350;2023-07-13T12:55:42;22.90;99.90
24860;DHT22;12936;52.006;4.350;2023-07-13T12:58:18;22.90;99.90
24860;DHT22;12936;52.006;4.350;2023-07-13T13:00:51;23.10;99.90
24860;DHT22;12936;52.006;4.350;2023-07-13T13:03:29;23.10;99.90
24860;DHT22;12936;52.006;4.350;2023-07-13T13:06:03;23.10;99.90
24860;DHT22;12936;52.006;4.350;2023-07-13T13:08:35;23.20;99.90
24860;DHT22;12936;52.006;4.350;2023-07-13T13:11:05;23.20;99.90
24860;DHT22;12936;52.006;4.350;2023-07-13T13:13:36;23.30;99.90
24860;DHT22;12936;52.006;4.350;2023-07-13T13:16:09;23.40;99.90
24860;DHT22;12936;52.006;4.350;2023-07-13T13:18:42;23.40;99.90
24860;DHT22;12936;52.006;4.350;2023-07-13T13:21:10;23.50;99.90
24860;DHT22;12936;52.006;4.350;2023-07-13T13:23:41;23.50;99.90
24860;DHT22;12936;52.006;4.350;2023-07-13T13:26:13;23.50;99.90
24860;DHT22;12936;52.006;4.350;2023-07-13T13:28:42;23.50;99.90
24860;DHT22;12936;52.006;4.350;2023-07-13T13:31:22;23.50;99.90
24860;DHT22;12936;52.006;4.350;2023-07-13T13:33:52;23.50;99.90
24860;DHT22;12936;52.006;4.350;2023-07-13T13:36:22;23.50;99.90
24860;DHT22;12936;52.006;4.350;2023-07-13T13:39:19;23.50;99.90
24860;DHT22;12936;52.006;4.350;2023-07-13T13:41:50;23.60;99.90
24860;DHT22;12936;52.006;4.350;2023-07-13T13:44:21;23.70;99.90
24860;DHT22;12936;52.006;4.350;2023-07-13T13:47:23;23.70;99.90
24860;DHT22;12936;52.006;4.350;2023-07-13T13:49:58;23.80;99.90
24860;DHT22;12936;52.006;4.350;2023-07-13T13:52:27;23.90;99.90
24860;DHT22;12936;52.006;4.350;2023-07-13T13:54:56;23.90;99.90
24860;DHT22;12936;52.006;4.350;2023-07-13T13:57:24;24.00;99.90
24860;DHT22;12936;52.006;4.350;2023-07-13T13:59:55;24.00;99.90
24860;DHT22;12936;52.006;4.350;2023-07-13T14:02:26;24.10;99.90
24860;DHT22;12936;52.006;4.350;2023-07-13T14:04:59;24.30;99.90
24860;DHT22;12936;52.006;4.350;2023-07-13T14:07:30;24.40;99.90
24860;DHT22;12936;52.006;4.350;2023-07-13T14:10:01;24.40;99.90
24860;DHT22;12936;52.006;4.350;2023-07-13T14:12:29;24.50;99.90
24860;DHT22;12936;52.006;4.350;2023-07-13T14:14:57;24.50;99.90
24860;DHT22;12936;52.006;4.350;2023-07-13T14:17:27;24.50;99.90
24860;DHT22;12936;52.006;4.350;2023-07-13T14:19:57;24.60;99.90
24860;DHT22;12936;52.006;4.350;2023-07-13T14:22:26;24.60;99.90
24860;DHT22;12936;52.006;4.350;2023-07-13T14:24:54;24.70;99.90
24860;DHT22;12936;52.006;4.350;2023-07-13T14:27:24;24.80;99.90
24860;DHT22;12936;52.006;4.350;2023-07-13T14:29:52;24.80;99.90
24860;DHT22;12936;52.006;4.350;2023-07-13T14:32:21;24.80;99.90
24860;DHT22;12936;52.006;4.350;2023-07-13T14:34:49;24.80;99.90
24860;DHT22;12936;52.006;4.350;2023-07-13T14:37:19;24.70;99.90
24860;DHT22;12936;52.006;4.350;2023-07-13T14:39:49;24.80;99.90
24860;DHT22;12936;52.006;4.350;2023-07-13T14:42:18;24.90;99.90
24860;DHT22;12936;52.006;4.350;2023-07-13T14:44:46;24.90;99.90
24860;DHT22;12936;52.006;4.350;2023-07-13T14:47:14;24.90;99.90
24860;DHT22;12936;52.006;4.350;2023-07-13T14:49:44;25.00;99.90
24860;DHT22;12936;52.006;4.350;2023-07-13T14:52:17;25.00;99.90
24860;DHT22;12936;52.006;4.350;2023-07-13T14:54:46;25.10;99.90
24860;DHT22;12936;52.006;4.350;2023-07-13T14:57:16;25.20;99.90
24860;DHT22;12936;52.006;4.350;2023-07-13T14:59:45;25.20;99.90
24860;DHT22;12936;52.006;4.350;2023-07-13T15:02:20;25.30;99.90
24860;DHT22;12936;52.006;4.350;2023-07-13T15:04:51;25.40;99.90
24860;DHT22;12936;52.006;4.350;2023-07-13T15:07:19;25.50;99.90
24860;DHT22;12936;52.006;4.350;2023-07-13T15:09:49;25.50;99.90
24860;DHT22;12936;52.006;4.350;2023-07-13T15:12:17;25.60;99.90
24860;DHT22;12936;52.006;4.350;2023-07-13T15:14:46;25.70;99.90
24860;DHT22;12936;52.006;4.350;2023-07-13T15:17:24;25.70;99.90
24860;DHT22;12936;52.006;4.350;2023-07-13T15:19:54;25.70;99.90
24860;DHT22;12936;52.006;4.350;2023-07-13T15:22:23;25.70;99.90
24860;DHT22;12936;52.006;4.350;2023-07-13T15:24:52;25.70;99.90
24860;DHT22;12936;52.006;4.350;2023-07-13T15:27:24;25.70;99.90
24860;DHT22;12936;52.006;4.350;2023-07-13T15:29:53;25.80;99.90
24860;DHT22;12936;52.006;4.350;2023-07-13T15:32:21;25.80;99.90
24860;DHT22;12936;52.006;4.350;2023-07-13T15:34:50;25.80;99.90
24860;DHT22;12936;52.006;4.350;2023-07-13T15:37:18;25.90;99.90
24860;DHT22;12936;52.006;4.350;2023-07-13T15:39:47;25.90;99.90
24860;DHT22;12936;52.006;4.350;2023-07-13T15:42:18;25.90;99.90
24860;DHT22;12936;52.006;4.350;2023-07-13T15:44:47;25.90;99.90
24860;DHT22;12936;52.006;4.350;2023-07-13T15:47:15;25.90;99.90
24860;DHT22;12936;52.006;4.350;2023-07-13T15:49:45;25.90;99.90
24860;DHT22;12936;52.006;4.350;2023-07-13T15:52:17;25.90;99.90
24860;DHT22;12936;52.006;4.350;2023-07-13T15:54:46;26.00;99.90
24860;DHT22;12936;52.006;4.350;2023-07-13T15:57:17;26.00;99.90
24860;DHT22;12936;52.006;4.350;2023-07-13T15:59:46;26.00;99.90
24860;DHT22;12936;52.006;4.350;2023-07-13T16:02:17;26.10;99.90
24860;DHT22;12936;52.006;4.350;2023-07-13T16:04:46;26.10;99.90
24860;DHT22;12936;52.006;4.350;2023-07-13T16:07:16;26.10;99.90
24860;DHT22;12936;52.006;4.350;2023-07-13T16:09:46;26.10;99.90
24860;DHT22;12936;52.006;4.350;2023-07-13T16:12:17;26.10;99.90
24860;DHT22;12936;52.006;4.350;2023-07-13T16:14:45;26.10;99.90
24860;DHT22;12936;52.006;4.350;2023-07-13T16:17:13;26.00;99.90
24860;DHT22;12936;52.006;4.350;2023-07-13T16:19:42;26.00;99.90
24860;DHT22;12936;52.006;4.350;2023-07-13T16:22:14;26.00;99.90
24860;DHT22;12936;52.006;4.350;2023-07-13T16:24:44;26.00;99.90
24860;DHT22;12936;52.006;4.350;2023-07-13T16:27:13;25.80;99.90
24860;DHT22;12936;52.006;4.350;2023-07-13T16:29:43;25.80;99.90